Time;durP1;ratioP1;P1;durP2;ratioP2;P2;SDS_P1;SDS_P2;PMS_P1;PMS_P2;Temp;Humidity;BMP_temperature;BMP_pressure;BME280_temperature;BME280_humidity;BME280_pressure;Samples;Min_cycle;Max_cycle;Signal;HPM_P1;HPM_P2
2023/06/26 00:03:38;;;;;;;;;;;24.50;47.80;;;23.82;47.19;101224.03;12247735;19;19927;-86
2023/06/26 00:07:39;;;;;;;;;;;24.40;47.80;;;23.73;47.14;101210.78;12246780;19;19918;-86
2023/06/26 00:11:40;;;;;;;;;;;24.40;47.90;;;23.81;46.90;101233.00;12246924;19;19938;-86
2023/06/26 00:15:42;;;;;;;;;;;24.40;47.90;;;23.77;47.22;101230.84;12248936;19;20612;-87
2023/06/26 00:19:44;;;;;;;;;;;24.30;48.00;;;23.71;47.10;101226.97;12247585;19;19914;-86
2023/06/26 00:23:46;;;;;;;;;;;24.30;47.90;;;23.69;47.36;101234.25;12244490;19;19919;-86
2023/06/26 00:27:47;;;;;;;;;;;24.20;47.90;;;23.67;47.16;101235.41;12245518;19;19935;-87
2023/06/26 00:31:48;;;;;;;;;;;24.20;48.00;;;23.55;47.28;101221.50;12245276;19;19935;-86
2023/06/26 00:35:50;;;;;;;;;;;24.20;48.00;;;23.55;46.93;101225.00;12247967;19;19921;-86
2023/06/26 00:39:51;;;;;;;;;;;24.10;48.00;;;23.52;47.12;101229.78;12246542;19;19911;-86
2023/06/26 00:43:53;;;;;;;;;;;24.10;48.10;;;23.45;47.18;101226.09;12242784;19;19919;-87
2023/06/26 00:47:55;;;;;;;;;;;24.00;48.10;;;23.31;47.36;101196.34;12244994;19;20488;-87
2023/06/26 00:51:57;;;;;;;;;;;24.00;48.10;;;23.30;47.26;101202.66;12244642;19;19947;-87
2023/06/26 00:56:00;;;;;;;;;;;24.00;48.20;;;23.38;47.71;101215.22;12247913;19;19911;-86
2023/06/26 01:00:03;;;;;;;;;;;23.90;48.20;;;23.28;47.47;101202.00;12249397;19;19953;-87
2023/06/26 01:04:06;;;;;;;;;;;23.90;48.20;;;23.23;47.80;101204.31;12244028;19;20432;-86
2023/06/26 01:08:08;;;;;;;;;;;23.80;48.20;;;23.23;47.67;101209.63;12245702;19;19915;-87
2023/06/26 01:12:10;;;;;;;;;;;23.80;48.30;;;22.99;47.40;101180.13;12240399;19;19915;-86
2023/06/26 01:16:11;;;;;;;;;;;23.80;48.30;;;23.12;47.86;101197.41;12247503;19;20308;-86
2023/06/26 01:20:15;;;;;;;;;;;23.70;48.30;;;23.16;47.96;101213.91;12247307;19;19939;-86
2023/06/26 01:24:20;;;;;;;;;;;23.70;48.40;;;23.11;47.70;101214.34;12244711;19;19922;-87
2023/06/26 01:28:25;;;;;;;;;;;23.70;48.30;;;22.80;47.67;101167.81;12245999;19;19922;-86
2023/06/26 01:32:27;;;;;;;;;;;23.60;48.30;;;23.01;47.67;101196.78;12255517;19;20257;-87
2023/06/26 01:36:29;;;;;;;;;;;23.60;48.30;;;22.95;47.81;101193.75;12259072;19;19921;-87
2023/06/26 01:40:31;;;;;;;;;;;23.60;48.40;;;22.89;47.74;101183.69;12258205;19;19931;-86
2023/06/26 01:44:35;;;;;;;;;;;23.50;48.30;;;22.90;47.79;101193.38;12256004;19;19922;-86
2023/06/26 01:48:51;;;;;;;;;;;23.50;48.40;;;22.58;47.57;101142.50;12253783;19;19926;-86
2023/06/26 01:53:05;;;;;;;;;;;23.50;48.50;;;22.82;47.88;101181.78;12255063;19;19978;-87
2023/06/26 01:57:08;;;;;;;;;;;23.40;48.40;;;22.67;48.00;101162.84;12258477;19;20411;-86
2023/06/26 02:01:10;;;;;;;;;;;23.40;48.50;;;22.54;47.93;101155.25;12256916;19;19988;-86
2023/06/26 02:05:12;;;;;;;;;;;23.30;48.50;;;22.65;48.10;101159.50;12258185;19;20761;-86
2023/06/26 02:09:13;;;;;;;;;;;23.30;48.60;;;22.63;48.05;101166.81;12256282;19;19927;-86
2023/06/26 02:13:15;;;;;;;;;;;23.30;48.60;;;22.66;48.17;101172.69;12254067;19;19923;-86
2023/06/26 02:17:17;;;;;;;;;;;23.20;48.60;;;22.64;47.93;101179.16;12257606;19;19919;-87
2023/06/26 02:21:18;;;;;;;;;;;23.20;48.60;;;22.58;47.85;101158.47;12255456;19;19954;-87
2023/06/26 02:25:20;;;;;;;;;;;23.30;48.80;;;22.56;48.02;101161.25;12258494;19;19942;-86
2023/06/26 02:29:21;;;;;;;;;;;23.20;48.70;;;22.51;47.97;101166.22;12255479;19;19919;-86
2023/06/26 02:33:23;;;;;;;;;;;23.20;48.80;;;22.36;48.01;101143.75;12254214;19;19918;-86
2023/06/26 02:37:24;;;;;;;;;;;23.10;48.80;;;22.41;48.37;101157.44;12254760;19;19919;-87
2023/06/26 02:41:26;;;;;;;;;;;23.10;48.90;;;22.29;48.48;101138.22;12253454;19;20338;-86
2023/06/26 02:45:27;;;;;;;;;;;23.10;48.90;;;22.48;48.15;101175.31;12255784;19;20317;-87
2023/06/26 02:49:29;;;;;;;;;;;23.10;48.90;;;22.50;48.34;101178.69;12252978;19;19982;-87
2023/06/26 02:53:31;;;;;;;;;;;23.10;48.90;;;22.10;48.25;101109.88;12253362;19;19915;-86
2023/06/26 02:57:33;;;;;;;;;;;23.10;49.00;;;22.42;48.50;101167.97;12255709;19;19982;-86
2023/06/26 03:01:35;;;;;;;;;;;23.10;49.00;;;22.42;48.33;101175.94;12253733;19;19986;-87
2023/06/26 03:05:37;;;;;;;;;;;23.00;48.90;;;22.40;48.57;101166.44;12256186;19;19948;-87
2023/06/26 03:09:38;;;;;;;;;;;23.00;49.00;;;22.30;48.52;101147.84;12252527;19;19915;-87
2023/06/26 03:13:40;;;;;;;;;;;23.00;49.00;;;22.15;48.35;101125.41;12251297;19;19964;-86
2023/06/26 03:17:42;;;;;;;;;;;23.00;49.30;;;22.24;48.74;101135.16;12250846;19;19929;-86
2023/06/26 03:21:48;;;;;;;;;;;22.90;49.00;;;22.17;48.58;101136.72;12252028;19;19939;-87
2023/06/26 03:25:49;;;;;;;;;;;22.90;49.00;;;22.24;48.50;101146.63;12251469;19;19935;-86
2023/06/26 03:29:58;;;;;;;;;;;22.90;49.00;;;22.16;48.70;101135.88;12249757;19;19915;-86
2023/06/26 03:33:59;;;;;;;;;;;22.90;49.00;;;22.09;48.82;101127.69;12247986;19;19922;-85
2023/06/26 03:38:01;;;;;;;;;;;22.80;49.00;;;22.01;48.52;101122.28;12252229;19;20388;-86
2023/06/26 03:42:03;;;;;;;;;;;22.80;49.10;;;22.04;48.82;101129.13;12250689;19;20304;-86
2023/06/26 03:46:05;;;;;;;;;;;22.70;49.10;;;21.93;48.77;101122.19;12251134;19;19911;-86
2023/06/26 03:50:07;;;;;;;;;;;22.70;49.20;;;21.97;48.50;101134.19;12249047;19;19922;-86
2023/06/26 03:54:10;;;;;;;;;;;22.70;49.20;;;21.96;48.46;101137.84;12244880;19;19934;-86
2023/06/26 03:58:11;;;;;;;;;;;22.60;49.30;;;21.89;49.10;101128.78;12242703;19;20666;-86
2023/06/26 04:02:13;;;;;;;;;;;22.60;49.30;;;21.94;48.79;101134.47;12248789;19;19915;-87
2023/06/26 04:06:18;;;;;;;;;;;22.60;49.40;;;21.92;49.13;101131.13;12249186;19;19923;-86
2023/06/26 04:10:21;;;;;;;;;;;22.60;49.50;;;21.86;48.96;101113.13;12250597;19;19911;-87
2023/06/26 04:14:23;;;;;;;;;;;22.60;49.60;;;21.76;49.18;101093.72;12247891;19;19907;-87
2023/06/26 04:18:24;;;;;;;;;;;22.60;49.70;;;21.97;48.94;101117.38;12247979;19;19919;-87
2023/06/26 04:22:25;;;;;;;;;;;22.60;49.90;;;21.99;48.85;101118.09;12245767;19;19919;-87
2023/06/26 04:26:27;;;;;;;;;;;22.70;50.10;;;21.81;49.17;101094.09;12248374;19;20641;-87
2023/06/26 04:30:29;;;;;;;;;;;22.70;50.00;;;22.00;49.22;101128.56;12244247;19;19918;-87
2023/06/26 04:34:33;;;;;;;;;;;22.70;50.10;;;22.07;49.08;101126.97;12236495;19;19923;-88
2023/06/26 04:38:35;;;;;;;;;;;22.70;50.20;;;22.07;49.49;101124.31;12243796;19;19929;-87
2023/06/26 04:42:37;;;;;;;;;;;22.80;50.50;;;22.13;49.38;101127.38;12242856;19;20254;-87
2023/06/26 04:46:41;;;;;;;;;;;22.80;50.50;;;22.12;49.16;101113.25;12240617;19;19971;-87
2023/06/26 04:50:42;;;;;;;;;;;22.90;50.60;;;22.26;49.70;101122.56;12243577;19;19929;-87
2023/06/26 04:54:44;;;;;;;;;;;23.00;50.70;;;22.22;49.76;101108.69;12242989;19;19919;-87
2023/06/26 04:58:45;;;;;;;;;;;23.00;50.70;;;22.28;49.61;101104.63;12246738;19;20369;-87
2023/06/26 05:02:47;;;;;;;;;;;23.10;50.80;;;22.39;49.56;101114.22;12242374;19;19919;-87
2023/06/26 05:06:48;;;;;;;;;;;23.20;50.70;;;22.48;49.80;101119.44;12254662;19;19915;-87
2023/06/26 05:10:50;;;;;;;;;;;23.20;51.00;;;22.51;49.79;101110.31;12251156;19;20333;-87
2023/06/26 05:14:51;;;;;;;;;;;23.30;50.80;;;22.33;50.04;101067.72;12255872;19;20269;-87
2023/06/26 05:18:54;;;;;;;;;;;23.40;51.10;;;22.65;50.01;101107.09;12257157;19;19923;-87
2023/06/26 05:22:56;;;;;;;;;;;23.50;51.00;;;22.52;49.62;101077.38;12255713;19;19911;-87
2023/06/26 05:26:58;;;;;;;;;;;23.50;51.20;;;22.77;50.20;101105.03;12255850;19;20253;-86
2023/06/26 05:30:59;;;;;;;;;;;23.60;51.20;;;22.61;50.15;101068.47;12257859;19;19919;-87
2023/06/26 05:35:03;;;;;;;;;;;23.70;51.10;;;22.95;50.11;101111.16;12255788;19;20333;-86
2023/06/26 05:39:04;;;;;;;;;;;23.80;51.10;;;22.99;49.81;101098.41;12257242;19;19923;-86
2023/06/26 05:43:06;;;;;;;;;;;23.80;51.10;;;23.10;49.90;101083.97;12253772;19;20859;-86
2023/06/26 05:47:08;;;;;;;;;;;23.90;51.20;;;23.12;50.02;101072.16;12259220;19;19948;-88
2023/06/26 05:51:09;;;;;;;;;;;24.00;51.10;;;23.18;49.94;101062.69;12255649;19;19918;-85
2023/06/26 05:55:12;;;;;;;;;;;24.10;51.30;;;23.41;50.35;101079.81;12257974;19;19919;-84
2023/06/26 05:59:15;;;;;;;;;;;24.30;51.50;;;23.34;50.49;101044.13;12257040;19;19915;-85
2023/06/26 06:03:16;;;;;;;;;;;24.40;51.70;;;23.59;50.33;101058.38;12252891;19;19962;-86
2023/06/26 06:07:18;;;;;;;;;;;24.50;51.60;;;23.70;50.48;101043.06;12256486;19;20343;-85
2023/06/26 06:11:19;;;;;;;;;;;24.60;51.60;;;23.97;50.44;101066.84;12252094;19;19922;-84
2023/06/26 06:15:20;;;;;;;;;;;24.80;51.80;;;24.14;50.28;101064.19;12254261;19;20026;-84
2023/06/26 06:19:22;;;;;;;;;;;25.00;51.70;;;24.36;50.86;101062.69;12252100;19;19923;-84
2023/06/26 06:23:24;;;;;;;;;;;25.20;51.90;;;24.55;50.89;101050.88;12246521;19;19919;-84
2023/06/26 06:27:25;;;;;;;;;;;25.40;51.90;;;24.61;50.83;101015.50;12251847;19;19955;-85
2023/06/26 06:31:28;;;;;;;;;;;25.70;51.90;;;24.98;50.71;101038.97;12252686;19;20353;-85
2023/06/26 06:35:30;;;;;;;;;;;26.00;51.60;;;25.29;50.99;101062.28;12254671;19;19922;-85
2023/06/26 06:39:31;;;;;;;;;;;26.20;51.30;;;25.45;50.75;101050.69;12252692;19;19950;-85
2023/06/26 06:43:36;;;;;;;;;;;26.50;51.20;;;25.62;50.98;101049.59;12246424;19;21350;-85
2023/06/26 06:47:38;;;;;;;;;;;26.70;51.10;;;25.88;50.67;101056.50;12251184;19;19915;-85
2023/06/26 06:51:39;;;;;;;;;;;26.90;50.80;;;25.93;50.90;101036.22;12248437;19;19939;-85
2023/06/26 06:55:40;;;;;;;;;;;27.10;50.60;;;26.19;50.73;101059.13;12251314;19;20342;-85
2023/06/26 06:59:42;;;;;;;;;;;27.30;50.40;;;26.27;50.51;101037.63;12251083;19;19923;-85
2023/06/26 07:03:44;;;;;;;;;;;27.40;50.20;;;26.42;50.61;101041.19;12245815;19;19919;-85
2023/06/26 07:07:45;;;;;;;;;;;27.50;50.20;;;26.68;50.57;101048.88;12251966;19;19934;-85
2023/06/26 07:11:47;;;;;;;;;;;27.70;49.90;;;26.83;50.49;101043.50;12245910;19;19930;-85
2023/06/26 07:15:48;;;;;;;;;;;27.90;50.10;;;26.93;50.58;101030.69;12249953;19;19915;-86
2023/06/26 07:19:50;;;;;;;;;;;28.10;50.00;;;27.03;50.75;101019.69;12246277;19;20368;-85
2023/06/26 07:23:52;;;;;;;;;;;28.20;49.90;;;27.30;50.51;101028.09;12242076;19;20003;-84
2023/06/26 07:27:53;;;;;;;;;;;28.40;49.90;;;27.52;50.54;101029.00;12246565;19;19926;-84
2023/06/26 07:31:55;;;;;;;;;;;28.60;49.90;;;27.65;50.10;101018.38;12243269;19;19935;-85
2023/06/26 07:35:57;;;;;;;;;;;28.80;48.70;;;27.68;50.16;101004.59;12247341;19;20261;-85
2023/06/26 07:39:59;;;;;;;;;;;29.00;49.10;;;27.98;50.25;101020.63;12245371;19;19911;-85
2023/06/26 07:44:00;;;;;;;;;;;29.10;49.10;;;28.10;50.15;101007.50;12241642;19;19932;-85
2023/06/26 07:48:01;;;;;;;;;;;29.30;49.00;;;28.28;50.08;101020.47;12245948;19;19925;-84
2023/06/26 07:52:03;;;;;;;;;;;29.40;48.30;;;28.40;49.97;101017.06;12243493;19;19927;-85
2023/06/26 07:56:05;;;;;;;;;;;29.60;49.10;;;28.67;50.17;101028.84;12244444;19;19915;-85
2023/06/26 08:00:07;;;;;;;;;;;29.70;48.90;;;28.82;50.24;101001.88;12243899;19;19922;-85
2023/06/26 08:04:15;;;;;;;;;;;29.90;49.00;;;29.07;49.69;101007.59;12244026;19;19938;-84
2023/06/26 08:08:16;;;;;;;;;;;30.20;49.00;;;29.28;49.74;101003.97;12246716;19;19934;-86
2023/06/26 08:12:18;;;;;;;;;;;30.40;48.50;;;29.50;49.78;101001.16;12245440;19;19923;-85
2023/06/26 08:16:19;;;;;;;;;;;30.60;47.70;;;29.63;49.46;100997.69;12246713;19;19987;-86
2023/06/26 08:20:22;;;;;;;;;;;30.80;47.50;;;29.66;49.31;100981.97;12245877;19;20265;-86
2023/06/26 08:24:24;;;;;;;;;;;30.90;46.90;;;29.82;49.07;100996.91;12244998;19;20304;-86
2023/06/26 08:28:25;;;;;;;;;;;31.00;46.40;;;29.91;48.80;100990.28;12240678;19;19923;-86
2023/06/26 08:32:26;;;;;;;;;;;31.00;45.70;;;29.98;48.58;100998.38;12239073;19;20918;-84
2023/06/26 08:36:27;;;;;;;;;;;31.10;42.20;;;29.86;48.60;100959.63;12243538;19;19922;-84
2023/06/26 08:40:30;;;;;;;;;;;31.10;46.30;;;30.10;48.42;100974.34;12241620;19;19947;-86
2023/06/26 08:44:31;;;;;;;;;;;31.20;43.80;;;30.18;48.24;100974.13;12243268;19;19931;-85
2023/06/26 08:48:36;;;;;;;;;;;31.30;45.10;;;30.31;47.88;100976.84;12243595;19;19974;-86
2023/06/26 08:52:46;;;;;;;;;;;31.30;44.00;;;30.43;48.14;100983.28;12246172;19;19926;-83
2023/06/26 08:56:49;;;;;;;;;;;31.40;45.60;;;30.59;47.90;100978.47;12253445;19;19915;-82
2023/06/26 09:00:50;;;;;;;;;;;31.50;44.80;;;30.72;48.06;100978.44;12252991;19;19950;-82
2023/06/26 09:04:52;;;;;;;;;;;31.70;45.60;;;30.88;47.77;100965.56;12245842;19;20002;-82
2023/06/26 09:08:53;;;;;;;;;;;31.80;43.90;;;30.96;47.83;100949.13;12247526;19;19974;-82
2023/06/26 09:12:57;;;;;;;;;;;32.00;45.40;;;31.12;47.74;100955.91;12244318;19;19922;-83
2023/06/26 09:16:58;;;;;;;;;;;32.10;44.70;;;31.23;47.28;100950.66;12246569;19;19922;-82
2023/06/26 09:21:05;;;;;;;;;;;32.20;44.90;;;31.31;47.19;100952.28;12243174;19;20353;-81
2023/06/26 09:25:07;;;;;;;;;;;32.40;44.70;;;31.45;47.40;100942.25;12245027;19;20370;-86
2023/06/26 09:29:09;;;;;;;;;;;32.50;45.40;;;31.61;47.28;100946.31;12245033;19;19960;-86
2023/06/26 09:33:16;;;;;;;;;;;32.60;45.30;;;31.60;46.84;100926.59;12241455;19;19922;-87
2023/06/26 09:37:17;;;;;;;;;;;32.80;45.50;;;31.79;46.79;100923.97;12239908;19;19922;-86
2023/06/26 09:41:20;;;;;;;;;;;32.90;45.50;;;31.97;47.02;100932.13;12241648;19;20337;-87
2023/06/26 09:45:21;;;;;;;;;;;33.00;45.00;;;32.10;46.50;100932.00;12240212;19;19939;-87
2023/06/26 09:49:23;;;;;;;;;;;33.10;42.20;;;32.03;46.53;100898.84;12239656;19;19932;-87
2023/06/26 09:53:25;;;;;;;;;;;33.20;44.80;;;32.21;46.25;100913.41;12245073;19;19922;-88
2023/06/26 09:57:27;;;;;;;;;;;33.30;42.60;;;32.34;46.15;100926.81;12249947;19;19978;-87
2023/06/26 10:01:29;;;;;;;;;;;33.30;42.80;;;32.40;46.03;100920.50;12248823;19;19923;-85
2023/06/26 10:05:30;;;;;;;;;;;33.40;43.00;;;32.46;45.98;100913.34;12253877;19;20006;-86
2023/06/26 10:09:32;;;;;;;;;;;33.50;42.80;;;32.51;45.54;100900.84;12254595;19;19919;-86
2023/06/26 10:13:42;;;;;;;;;;;33.60;43.60;;;32.46;45.58;100878.22;12250430;19;20267;-88
2023/06/26 10:17:44;;;;;;;;;;;33.70;43.40;;;32.72;45.30;100891.44;12254516;19;19930;-88
2023/06/26 10:21:47;;;;;;;;;;;33.70;44.40;;;32.78;45.10;100898.66;12252648;19;19948;-86
2023/06/26 10:25:51;;;;;;;;;;;33.80;41.10;;;32.87;45.16;100888.34;12254239;19;20652;-86
2023/06/26 10:29:55;;;;;;;;;;;33.80;42.30;;;32.92;45.06;100874.97;12252316;19;19915;-86
2023/06/26 10:33:56;;;;;;;;;;;33.90;42.80;;;32.93;44.75;100875.78;12247543;19;19934;-88
2023/06/26 10:38:06;;;;;;;;;;;33.90;41.30;;;32.76;44.62;100837.72;12250850;19;19907;-86
2023/06/26 10:42:09;;;;;;;;;;;34.00;41.80;;;33.00;44.31;100871.97;12250769;19;19934;-88
2023/06/26 10:46:14;;;;;;;;;;;34.00;43.30;;;32.91;44.24;100835.41;12251127;19;19910;-89
2023/06/26 10:50:22;;;;;;;;;;;34.00;42.70;;;32.99;44.23;100826.16;12245349;19;19915;-87
2023/06/26 10:54:28;;;;;;;;;;;34.10;42.80;;;33.00;44.03;100806.13;12245203;19;20365;-89
2023/06/26 10:58:41;;;;;;;;;;;34.20;43.10;;;33.36;44.27;100858.53;12251062;19;19919;-89
2023/06/26 11:02:50;;;;;;;;;;;34.20;43.30;;;33.40;43.97;100848.88;12246034;19;20248;-90
2023/06/26 11:07:11;;;;;;;;;;;34.20;42.10;;;33.48;43.86;100849.34;12251607;19;19923;-86
2023/06/26 11:11:13;;;;;;;;;;;34.30;43.00;;;33.44;44.00;100820.28;12249836;19;19919;-88
2023/06/26 11:15:16;;;;;;;;;;;34.40;43.20;;;33.73;43.96;100832.09;12246602;19;20042;-87
2023/06/26 11:19:18;;;;;;;;;;;34.60;43.50;;;33.82;43.83;100830.69;12250284;19;19939;-87
2023/06/26 11:23:24;;;;;;;;;;;34.70;43.00;;;33.68;43.56;100785.94;12244495;19;20341;-88
2023/06/26 11:27:31;;;;;;;;;;;34.80;43.20;;;33.98;43.63;100829.13;12248054;19;19926;-88
2023/06/26 11:31:36;;;;;;;;;;;34.80;42.90;;;34.06;43.43;100830.69;12243995;19;20762;-87
2023/06/26 11:35:38;;;;;;;;;;;34.90;39.20;;;33.92;43.15;100800.28;12249477;19;19932;-87
2023/06/26 11:39:40;;;;;;;;;;;34.90;42.20;;;33.91;43.08;100769.63;12249730;19;19930;-87
2023/06/26 11:43:41;;;;;;;;;;;35.00;42.00;;;34.24;42.86;100811.56;12240376;19;19982;-88
2023/06/26 11:47:43;;;;;;;;;;;35.00;41.30;;;34.24;42.83;100789.03;12241706;19;20348;-87
2023/06/26 11:51:46;;;;;;;;;;;35.10;42.00;;;34.30;43.10;100772.66;12249448;19;19948;-88
2023/06/26 11:55:47;;;;;;;;;;;35.20;42.40;;;34.48;42.54;100792.50;12247492;19;19926;-89
2023/06/26 11:59:50;;;;;;;;;;;35.30;40.60;;;34.53;42.66;100787.16;12250680;19;19915;-88
2023/06/26 12:03:51;;;;;;;;;;;35.30;42.10;;;34.54;42.75;100773.38;12244720;19;19921;-89
2023/06/26 12:07:53;;;;;;;;;;;35.40;42.50;;;34.45;42.55;100746.88;12245976;19;19986;-88
2023/06/26 12:11:56;;;;;;;;;;;35.40;41.90;;;34.62;42.31;100755.91;12246380;19;19994;-87
2023/06/26 12:15:57;;;;;;;;;;;35.50;42.00;;;34.61;42.35;100753.44;12244849;19;19995;-87
2023/06/26 12:19:59;;;;;;;;;;;35.50;41.00;;;34.66;42.17;100753.53;12246007;19;20262;-88
2023/06/26 12:24:01;;;;;;;;;;;35.50;41.70;;;34.70;41.77;100741.97;12242994;19;19931;-88
2023/06/26 12:28:03;;;;;;;;;;;35.50;41.80;;;34.70;41.82;100738.41;12245991;19;19919;-87
2023/06/26 12:32:07;;;;;;;;;;;35.50;41.90;;;34.70;41.75;100735.69;12247269;19;19946;-88
2023/06/26 12:36:13;;;;;;;;;;;35.50;41.90;;;34.63;41.73;100719.56;12244774;19;19929;-87
2023/06/26 12:40:19;;;;;;;;;;;35.50;41.50;;;34.77;41.40;100729.03;12245398;19;20363;-88
2023/06/26 12:44:24;;;;;;;;;;;35.50;41.30;;;34.71;41.74;100719.19;12246269;19;19932;-88
2023/06/26 12:48:49;;;;;;;;;;;35.50;41.00;;;34.80;41.51;100720.41;12243111;19;19994;-88
2023/06/26 12:52:50;;;;;;;;;;;35.50;41.30;;;34.82;41.26;100703.06;12242679;19;19907;-89
2023/06/26 12:56:52;;;;;;;;;;;35.50;41.10;;;34.88;41.22;100711.03;12241327;19;20737;-88
2023/06/26 13:00:57;;;;;;;;;;;35.50;41.20;;;34.93;41.32;100711.13;12245924;19;20272;-87
2023/06/26 13:04:59;;;;;;;;;;;35.60;41.20;;;34.89;40.95;100691.00;12245694;19;19911;-88
2023/06/26 13:09:04;;;;;;;;;;;35.60;39.00;;;34.93;40.92;100692.13;12241467;19;19918;-89
2023/06/26 13:13:05;;;;;;;;;;;35.70;39.30;;;34.95;40.71;100683.75;12239120;19;19922;-87
2023/06/26 13:17:07;;;;;;;;;;;35.60;40.40;;;34.93;40.66;100683.16;12240953;19;19937;-89
2023/06/26 13:21:08;;;;;;;;;;;35.60;39.70;;;34.89;40.61;100666.56;12244168;19;19927;-88
2023/06/26 13:25:09;;;;;;;;;;;35.60;38.90;;;34.84;40.42;100647.47;12243685;19;20256;-88
2023/06/26 13:29:11;;;;;;;;;;;35.60;40.60;;;34.72;40.39;100623.13;12254415;19;20257;-88
2023/06/26 13:33:12;;;;;;;;;;;35.60;40.20;;;34.90;40.37;100641.06;12255203;19;19918;-88
2023/06/26 13:37:13;;;;;;;;;;;35.60;40.80;;;34.74;40.33;100620.19;12257354;19;19918;-87
2023/06/26 13:41:15;;;;;;;;;;;35.50;40.10;;;34.87;40.31;100635.31;12254024;19;19918;-88
2023/06/26 13:45:17;;;;;;;;;;;35.50;40.50;;;34.82;39.89;100605.38;12255248;19;20020;-88
2023/06/26 13:49:18;;;;;;;;;;;35.50;40.60;;;34.79;40.03;100599.38;12253268;19;19921;-87
2023/06/26 13:53:20;;;;;;;;;;;35.50;40.40;;;34.56;39.99;100554.25;12253155;19;19939;-88
2023/06/26 13:57:22;;;;;;;;;;;35.40;40.60;;;34.82;40.19;100583.66;12255071;19;20314;-88
2023/06/26 14:01:23;;;;;;;;;;;35.40;40.40;;;34.58;40.26;100529.59;12254305;19;19930;-88
2023/06/26 14:05:25;;;;;;;;;;;35.40;40.20;;;34.83;39.92;100542.69;12254159;19;19923;-88
2023/06/26 14:09:26;;;;;;;;;;;35.50;40.40;;;34.91;40.18;100544.16;12252701;19;19949;-89
2023/06/26 14:13:28;;;;;;;;;;;35.50;40.70;;;34.99;39.76;100541.84;12261826;19;19907;-89
2023/06/26 14:17:29;;;;;;;;;;;35.60;40.50;;;34.88;39.69;100510.22;12284161;19;19918;-88
2023/06/26 14:21:31;;;;;;;;;;;35.60;40.50;;;35.04;39.78;100549.22;12253213;19;19915;-88
2023/06/26 14:25:32;;;;;;;;;;;35.60;40.10;;;34.84;39.46;100544.38;12250410;19;19934;-88
2023/06/26 14:29:35;;;;;;;;;;;35.60;40.00;;;34.88;39.30;100548.19;12243890;19;19947;-88
2023/06/26 14:33:37;;;;;;;;;;;35.50;39.90;;;34.88;39.52;100539.25;12249097;19;19926;-88
2023/06/26 14:37:39;;;;;;;;;;;35.50;38.80;;;34.72;39.42;100540.91;12250735;19;19933;-87
2023/06/26 14:41:42;;;;;;;;;;;35.40;40.20;;;34.68;39.21;100607.63;12253106;19;19926;-88
2023/06/26 14:45:43;;;;;;;;;;;35.30;39.90;;;34.31;39.35;100682.09;12251091;19;20324;-88
2023/06/26 14:49:44;;;;;;;;;;;35.10;38.60;;;33.96;39.23;100759.97;12249618;19;19915;-89
2023/06/26 14:53:47;;;;;;;;;;;34.90;39.80;;;33.36;39.51;100707.72;12248078;19;19925;-88
2023/06/26 14:57:49;;;;;;;;;;;34.40;39.00;;;32.46;39.67;100746.56;12250307;19;19915;-88
2023/06/26 15:01:50;;;;;;;;;;;33.70;39.80;;;31.77;39.50;100764.00;12247226;19;19986;-88
2023/06/26 15:05:52;;;;;;;;;;;33.00;40.10;;;30.94;40.04;100771.31;12249423;19;19919;-88
2023/06/26 15:09:54;;;;;;;;;;;32.30;40.80;;;30.36;40.14;100795.69;12248204;19;19930;-89
2023/06/26 15:13:56;;;;;;;;;;;31.60;41.00;;;29.86;40.40;100820.41;12243640;19;20042;-89
2023/06/26 15:17:57;;;;;;;;;;;30.90;41.40;;;29.52;40.20;100824.16;12248763;19;20278;-89
2023/06/26 15:21:58;;;;;;;;;;;30.30;41.70;;;29.26;40.53;100827.66;12248569;19;20313;-89
2023/06/26 15:26:00;;;;;;;;;;;29.80;42.00;;;29.11;40.16;100811.69;12249251;19;19923;-90
2023/06/26 15:30:02;;;;;;;;;;;29.50;42.40;;;29.06;40.17;100835.72;12247482;19;19990;-90
2023/06/26 15:34:06;;;;;;;;;;;29.30;42.80;;;28.73;40.33;100800.63;12256145;19;19938;-92
2023/06/26 15:38:08;;;;;;;;;;;29.10;43.50;;;28.84;40.47;100830.44;12255221;19;19945;-92
2023/06/26 15:42:09;;;;;;;;;;;28.90;43.60;;;28.32;40.84;100783.50;12249859;19;19955;-92
2023/06/26 15:46:10;;;;;;;;;;;28.80;43.90;;;28.66;40.93;100847.13;12265237;19;20344;-92
2023/06/26 15:50:12;;;;;;;;;;;28.70;44.40;;;28.56;40.67;100849.34;12255682;19;19915;-92
2023/06/26 15:54:14;;;;;;;;;;;28.60;44.00;;;28.30;41.00;100816.94;12244310;19;19926;-92
2023/06/26 15:58:15;;;;;;;;;;;28.50;44.20;;;28.38;41.15;100862.44;12246751;19;19915;-92
2023/06/26 16:02:17;;;;;;;;;;;28.40;44.20;;;28.20;41.25;100882.63;12244701;19;19919;-91
2023/06/26 16:06:18;;;;;;;;;;;28.30;44.20;;;28.04;41.43;100887.47;12246972;19;19929;-92
2023/06/26 16:10:20;;;;;;;;;;;28.20;44.30;;;27.98;41.35;100894.44;12243952;19;19986;-91
2023/06/26 16:14:21;;;;;;;;;;;28.10;44.50;;;27.93;41.65;100854.75;12243078;19;20329;-91
2023/06/26 16:18:26;;;;;;;;;;;28.00;44.50;;;27.63;41.34;100821.88;12248437;19;20123;-91
2023/06/26 16:22:27;;;;;;;;;;;27.90;44.50;;;27.48;41.72;100787.06;12247938;19;19923;-91
2023/06/26 16:26:29;;;;;;;;;;;27.90;44.80;;;27.84;41.85;100844.34;12245911;19;19923;-92
2023/06/26 16:30:31;;;;;;;;;;;27.90;44.80;;;27.88;42.06;100840.25;12242256;19;19926;-92
2023/06/26 16:34:32;;;;;;;;;;;27.90;44.90;;;27.77;41.77;100823.63;12237944;19;20362;-91
2023/06/26 16:38:34;;;;;;;;;;;27.90;45.00;;;27.75;41.97;100822.16;12248170;19;19943;-91
2023/06/26 16:42:35;;;;;;;;;;;27.90;45.00;;;27.66;41.64;100821.47;12246056;19;19919;-91
2023/06/26 16:46:37;;;;;;;;;;;27.90;45.10;;;27.73;42.16;100827.75;12248540;19;20322;-91
2023/06/26 16:50:38;;;;;;;;;;;27.90;45.20;;;27.43;42.21;100783.31;12243570;19;19919;-92
2023/06/26 16:54:40;;;;;;;;;;;27.80;45.50;;;27.68;42.34;100837.38;12242854;19;19939;-90
2023/06/26 16:58:41;;;;;;;;;;;27.80;45.40;;;27.54;42.33;100849.84;12245335;19;19931;-91
2023/06/26 17:02:44;;;;;;;;;;;27.70;45.20;;;27.40;42.41;100842.72;12249757;19;19923;-90
2023/06/26 17:06:46;;;;;;;;;;;27.70;45.30;;;27.41;42.62;100866.69;12256385;19;19915;-91
2023/06/26 17:10:47;;;;;;;;;;;27.60;45.40;;;27.28;42.68;100843.25;12251390;19;19940;-91
2023/06/26 17:14:50;;;;;;;;;;;27.60;45.50;;;27.26;42.41;100853.31;12252430;19;19948;-92
2023/06/26 17:18:52;;;;;;;;;;;27.40;45.50;;;27.10;42.85;100838.28;12263888;19;19926;-94
2023/06/26 17:22:53;;;;;;;;;;;27.50;45.70;;;27.35;42.79;100884.38;12293830;19;19926;-91
2023/06/26 17:27:06;;;;;;;;;;;27.50;45.90;;;27.11;42.94;100861.41;12282617;19;19922;-93
2023/06/26 17:31:08;;;;;;;;;;;27.50;45.90;;;27.15;43.16;100883.28;12284952;19;20547;-92
2023/06/26 17:35:09;;;;;;;;;;;27.50;46.10;;;27.20;42.87;100917.63;12272680;19;19922;-93
2023/06/26 17:39:10;;;;;;;;;;;27.40;46.20;;;26.92;43.07;100897.69;12259654;19;19919;-91
2023/06/26 17:43:12;;;;;;;;;;;27.40;46.10;;;27.08;43.22;100928.78;12255752;19;19950;-93
2023/06/26 17:47:13;;;;;;;;;;;27.30;46.00;;;27.02;43.54;100923.34;12267164;19;19929;-92
2023/06/26 17:51:15;;;;;;;;;;;27.30;46.10;;;26.73;43.07;100867.94;12249974;19;20297;-91
2023/06/26 17:55:16;;;;;;;;;;;27.30;46.30;;;26.90;43.72;100897.03;12255831;19;20380;-91
2023/06/26 17:59:18;;;;;;;;;;;27.30;46.50;;;26.90;43.75;100917.66;12255344;19;19915;-92
2023/06/26 18:03:19;;;;;;;;;;;27.30;46.30;;;26.77;43.58;100898.72;12249441;19;19919;-91
2023/06/26 18:07:21;;;;;;;;;;;27.20;46.40;;;26.74;43.88;100909.81;12256123;19;19924;-92
2023/06/26 18:11:22;;;;;;;;;;;27.10;46.40;;;26.56;43.45;100896.78;12248049;19;19927;-91